UAL2005 PHKO-KLAX
Flight info
| Callsign | UAL2005 |
|---|---|
| Flight time | 4h 33m |
| Altitude | 39000 |
| Route | KOA V5 MYNAH V11 UPP EBBER R577 ELKEY RYDRR2 |
| Aircraft | B772/H-SDE2E3FGHIJ5LORVWXY/LB1D1 |
Departure
| Time | 2026-04-24 23:49 |
|---|---|
| Airport | Ellison Onizuka Kona International Airport at Keāhole (PHKO) |
Arrival
| Time | 2026-04-25 04:23 |
|---|---|
| Airport | Los Angeles International Airport (KLAX) |
| Time | Latitude | Longitude | Altitude | Speed | Heading |
|---|---|---|---|---|---|
| 2026-04-24 23:23 | 19.73774 | -156.04204 | 79 ft | 0 kts | 128° |
| 2026-04-24 23:38 | 19.73775 | -156.04205 | 79 ft | 1 kts | 128° |
| 2026-04-24 23:38 | 19.73784 | -156.04217 | 79 ft | 2 kts | 128° |
| 2026-04-24 23:39 | 19.73794 | -156.04231 | 78 ft | 2 kts | 129° |
| 2026-04-24 23:39 | 19.73803 | -156.04244 | 78 ft | 2 kts | 129° |
| 2026-04-24 23:39 | 19.73812 | -156.04256 | 77 ft | 2 kts | 143° |
| 2026-04-24 23:39 | 19.73826 | -156.04260 | 77 ft | 2 kts | 184° |
| 2026-04-24 23:40 | 19.73840 | -156.04256 | 78 ft | 2 kts | 219° |
| 2026-04-24 23:40 | 19.73848 | -156.04244 | 78 ft | 2 kts | 254° |
| 2026-04-24 23:40 | 19.73849 | -156.04228 | 79 ft | 2 kts | 279° |
| 2026-04-24 23:40 | 19.73847 | -156.04215 | 79 ft | 2 kts | 276° |
| 2026-04-24 23:41 | 19.73846 | -156.04208 | 79 ft | 0 kts | 275° |
| 2026-04-24 23:43 | 19.73847 | -156.04219 | 79 ft | 3 kts | 275° |
| 2026-04-24 23:43 | 19.73850 | -156.04263 | 77 ft | 8 kts | 270° |
| 2026-04-24 23:44 | 19.73804 | -156.04308 | 75 ft | 11 kts | 196° |
| 2026-04-24 23:44 | 19.73720 | -156.04323 | 75 ft | 12 kts | 185° |
| 2026-04-24 23:44 | 19.73628 | -156.04332 | 75 ft | 13 kts | 184° |
| 2026-04-24 23:44 | 19.73537 | -156.04338 | 76 ft | 12 kts | 184° |
| 2026-04-24 23:45 | 19.73449 | -156.04346 | 77 ft | 13 kts | 185° |
| 2026-04-24 23:45 | 19.73353 | -156.04355 | 76 ft | 14 kts | 185° |
| 2026-04-24 23:45 | 19.73254 | -156.04364 | 77 ft | 14 kts | 185° |
| 2026-04-24 23:45 | 19.73156 | -156.04373 | 78 ft | 14 kts | 185° |
| 2026-04-24 23:46 | 19.73054 | -156.04382 | 77 ft | 15 kts | 185° |
| 2026-04-24 23:46 | 19.72949 | -156.04393 | 78 ft | 15 kts | 185° |
| 2026-04-24 23:46 | 19.72839 | -156.04402 | 77 ft | 16 kts | 184° |
| 2026-04-24 23:46 | 19.72724 | -156.04411 | 77 ft | 16 kts | 185° |
| 2026-04-24 23:47 | 19.72603 | -156.04422 | 76 ft | 17 kts | 185° |
| 2026-04-24 23:47 | 19.72537 | -156.04428 | 76 ft | 4 kts | 185° |
| 2026-04-24 23:47 | 19.72496 | -156.04433 | 76 ft | 6 kts | 185° |
| 2026-04-24 23:47 | 19.72436 | -156.04437 | 74 ft | 10 kts | 185° |
| 2026-04-24 23:48 | 19.72368 | -156.04466 | 72 ft | 12 kts | 245° |
| 2026-04-24 23:48 | 19.72368 | -156.04559 | 69 ft | 10 kts | 275° |
| 2026-04-24 23:48 | 19.72378 | -156.04648 | 67 ft | 13 kts | 282° |
| 2026-04-24 23:48 | 19.72451 | -156.04694 | 66 ft | 14 kts | 5° |
| 2026-04-24 23:49 | 19.72690 | -156.04672 | 67 ft | 67 kts | 4° |
| 2026-04-24 23:49 | 19.73373 | -156.04613 | 69 ft | 127 kts | 4° |
| 2026-04-24 23:49 | 19.74410 | -156.04520 | 174 ft | 161 kts | 2° |
| 2026-04-24 23:49 | 19.75516 | -156.04425 | 703 ft | 164 kts | 3° |
| 2026-04-24 23:50 | 19.76688 | -156.04335 | 1281 ft | 168 kts | 4° |
| 2026-04-24 23:50 | 19.77876 | -156.04269 | 1371 ft | 177 kts | 3° |
| 2026-04-24 23:50 | 19.79146 | -156.04205 | 1377 ft | 190 kts | 3° |
| 2026-04-24 23:50 | 19.80526 | -156.04138 | 1370 ft | 206 kts | 3° |
| 2026-04-24 23:51 | 19.82032 | -156.04063 | 1449 ft | 225 kts | 3° |
| 2026-04-24 23:51 | 19.83681 | -156.03983 | 1585 ft | 244 kts | 3° |
| 2026-04-24 23:51 | 19.85433 | -156.03902 | 1920 ft | 255 kts | 3° |
| 2026-04-24 23:51 | 19.87191 | -156.03821 | 2466 ft | 256 kts | 3° |
| 2026-04-24 23:52 | 19.88991 | -156.03700 | 2967 ft | 258 kts | 11° |
| 2026-04-24 23:52 | 19.90663 | -156.03008 | 3428 ft | 261 kts | 30° |
| 2026-04-24 23:52 | 19.92221 | -156.02020 | 3965 ft | 262 kts | 31° |
| 2026-04-24 23:52 | 19.93784 | -156.01007 | 4554 ft | 266 kts | 31° |
| 2026-04-24 23:53 | 19.95365 | -155.99982 | 5221 ft | 267 kts | 31° |
| 2026-04-24 23:53 | 19.96943 | -155.98956 | 5828 ft | 270 kts | 31° |
| 2026-04-24 23:53 | 19.98542 | -155.97919 | 6474 ft | 271 kts | 31° |
| 2026-04-24 23:53 | 20.00178 | -155.96855 | 7095 ft | 274 kts | 31° |
| 2026-04-24 23:54 | 20.01789 | -155.95808 | 7708 ft | 276 kts | 31° |
| 2026-04-24 23:54 | 20.03439 | -155.94736 | 8302 ft | 280 kts | 31° |
| 2026-04-24 23:54 | 20.05106 | -155.93660 | 8924 ft | 282 kts | 30° |
| 2026-04-24 23:54 | 20.06822 | -155.92590 | 9546 ft | 284 kts | 29° |
| 2026-04-24 23:55 | 20.08518 | -155.91538 | 10166 ft | 286 kts | 29° |
| 2026-04-24 23:55 | 20.10278 | -155.90442 | 10478 ft | 301 kts | 29° |
| 2026-04-24 23:55 | 20.12137 | -155.89281 | 10759 ft | 317 kts | 29° |
| 2026-04-24 23:55 | 20.14087 | -155.88062 | 11081 ft | 332 kts | 29° |
| 2026-04-24 23:56 | 20.16137 | -155.86780 | 11437 ft | 346 kts | 29° |
| 2026-04-24 23:56 | 20.18205 | -155.85416 | 11790 ft | 361 kts | 34° |
| 2026-04-24 23:56 | 20.20148 | -155.83604 | 12244 ft | 374 kts | 45° |
| 2026-04-24 23:56 | 20.21731 | -155.81416 | 12914 ft | 381 kts | 54° |
| 2026-04-24 23:57 | 20.23133 | -155.79005 | 13628 ft | 384 kts | 56° |
| 2026-04-24 23:57 | 20.24529 | -155.76564 | 14314 ft | 389 kts | 56° |
| 2026-04-24 23:57 | 20.25937 | -155.74103 | 15007 ft | 394 kts | 56° |
| 2026-04-24 23:57 | 20.27372 | -155.71593 | 15718 ft | 397 kts | 56° |
| 2026-04-24 23:58 | 20.28798 | -155.69101 | 16379 ft | 401 kts | 57° |
| 2026-04-24 23:58 | 20.30251 | -155.66565 | 16982 ft | 405 kts | 57° |
| 2026-04-24 23:58 | 20.31725 | -155.63989 | 17583 ft | 409 kts | 57° |
| 2026-04-24 23:58 | 20.33215 | -155.61385 | 18205 ft | 413 kts | 57° |
| 2026-04-24 23:59 | 20.34703 | -155.58783 | 18825 ft | 415 kts | 57° |
| 2026-04-24 23:59 | 20.36216 | -155.56137 | 19431 ft | 418 kts | 57° |
| 2026-04-24 23:59 | 20.37718 | -155.53508 | 19974 ft | 422 kts | 57° |
| 2026-04-24 23:59 | 20.39249 | -155.50830 | 20494 ft | 426 kts | 57° |
| 2026-04-25 00:00 | 20.40789 | -155.48132 | 21025 ft | 430 kts | 57° |
| 2026-04-25 00:00 | 20.42345 | -155.45407 | 21573 ft | 432 kts | 57° |
| 2026-04-25 00:00 | 20.43913 | -155.42659 | 22083 ft | 436 kts | 57° |
| 2026-04-25 00:00 | 20.45487 | -155.39899 | 22571 ft | 439 kts | 57° |
| 2026-04-25 00:01 | 20.47079 | -155.37106 | 23046 ft | 442 kts | 57° |
| 2026-04-25 00:01 | 20.48686 | -155.34286 | 23520 ft | 445 kts | 58° |
| 2026-04-25 00:01 | 20.50305 | -155.31444 | 23991 ft | 448 kts | 57° |
| 2026-04-25 00:01 | 20.51906 | -155.28632 | 24410 ft | 451 kts | 58° |
| 2026-04-25 00:02 | 20.53544 | -155.25752 | 24850 ft | 454 kts | 58° |
| 2026-04-25 00:02 | 20.55171 | -155.22891 | 25359 ft | 455 kts | 58° |
| 2026-04-25 00:02 | 20.56827 | -155.19977 | 25836 ft | 458 kts | 57° |
| 2026-04-25 00:02 | 20.58476 | -155.17075 | 26238 ft | 461 kts | 58° |
| 2026-04-25 00:03 | 20.60130 | -155.14162 | 26646 ft | 464 kts | 58° |
| 2026-04-25 00:03 | 20.61816 | -155.11191 | 27138 ft | 465 kts | 57° |
| 2026-04-25 00:03 | 20.63487 | -155.08246 | 27633 ft | 466 kts | 58° |
| 2026-04-25 00:03 | 20.65161 | -155.05293 | 28083 ft | 468 kts | 58° |
| 2026-04-25 00:04 | 20.66855 | -155.02303 | 28452 ft | 471 kts | 58° |
| 2026-04-25 00:04 | 20.68540 | -154.99327 | 28849 ft | 474 kts | 58° |
| 2026-04-25 00:04 | 20.70243 | -154.96318 | 29280 ft | 475 kts | 58° |
| 2026-04-25 00:04 | 20.71956 | -154.93291 | 29759 ft | 475 kts | 58° |
| 2026-04-25 00:05 | 20.73655 | -154.90285 | 30182 ft | 477 kts | 58° |
| 2026-04-25 00:05 | 20.75377 | -154.87239 | 30533 ft | 479 kts | 58° |
| 2026-04-25 00:05 | 20.77093 | -154.84201 | 30879 ft | 482 kts | 58° |
| 2026-04-25 00:05 | 20.78821 | -154.81140 | 31216 ft | 485 kts | 58° |
| 2026-04-25 00:06 | 20.80572 | -154.78035 | 31566 ft | 487 kts | 58° |
| 2026-04-25 00:06 | 20.82324 | -154.74930 | 31915 ft | 489 kts | 58° |
| 2026-04-25 00:06 | 20.84081 | -154.71811 | 32284 ft | 490 kts | 58° |
| 2026-04-25 00:06 | 20.85839 | -154.68690 | 32633 ft | 492 kts | 57° |
| 2026-04-25 00:07 | 20.87606 | -154.65550 | 32991 ft | 494 kts | 57° |
| 2026-04-25 00:07 | 20.89353 | -154.62447 | 33328 ft | 495 kts | 57° |
| 2026-04-25 00:07 | 20.91146 | -154.59258 | 33692 ft | 496 kts | 57° |
| 2026-04-25 00:07 | 20.92917 | -154.56107 | 34066 ft | 496 kts | 57° |
| 2026-04-25 00:08 | 20.94699 | -154.52934 | 34461 ft | 496 kts | 57° |
| 2026-04-25 00:08 | 20.96474 | -154.49773 | 34836 ft | 497 kts | 57° |
| 2026-04-25 00:08 | 20.98254 | -154.46600 | 35206 ft | 496 kts | 57° |
| 2026-04-25 00:08 | 21.00003 | -154.43480 | 35542 ft | 497 kts | 57° |
| 2026-04-25 00:09 | 21.01787 | -154.40297 | 35829 ft | 498 kts | 57° |
| 2026-04-25 00:09 | 21.03587 | -154.37085 | 36099 ft | 499 kts | 56° |
| 2026-04-25 00:09 | 21.05373 | -154.33893 | 36355 ft | 501 kts | 57° |
| 2026-04-25 00:09 | 21.07164 | -154.30692 | 36588 ft | 502 kts | 57° |
| 2026-04-25 00:10 | 21.08961 | -154.27478 | 36825 ft | 503 kts | 57° |
| 2026-04-25 00:10 | 21.10742 | -154.24291 | 37066 ft | 503 kts | 57° |
| 2026-04-25 00:10 | 21.12553 | -154.21050 | 37291 ft | 504 kts | 57° |
| 2026-04-25 00:10 | 21.14343 | -154.17842 | 37477 ft | 506 kts | 57° |
| 2026-04-25 00:11 | 21.16142 | -154.14618 | 37668 ft | 507 kts | 57° |
| 2026-04-25 00:11 | 21.17947 | -154.11379 | 37833 ft | 508 kts | 57° |
| 2026-04-25 00:11 | 21.19761 | -154.08124 | 38025 ft | 508 kts | 56° |
| 2026-04-25 00:11 | 21.21580 | -154.04857 | 38177 ft | 509 kts | 56° |
| 2026-04-25 00:12 | 21.23388 | -154.01610 | 38345 ft | 510 kts | 56° |
| 2026-04-25 00:12 | 21.25218 | -153.98318 | 38556 ft | 510 kts | 56° |
| 2026-04-25 00:12 | 21.27032 | -153.95056 | 38772 ft | 510 kts | 56° |
| 2026-04-25 00:12 | 21.28831 | -153.91817 | 38995 ft | 510 kts | 56° |
| 2026-04-25 00:13 | 21.32471 | -153.85259 | 39057 ft | 512 kts | 56° |
| 2026-04-25 00:13 | 21.36089 | -153.78732 | 39063 ft | 510 kts | 56° |
| 2026-04-25 00:14 | 21.39707 | -153.72198 | 39055 ft | 510 kts | 56° |
| 2026-04-25 00:14 | 21.43321 | -153.65665 | 39055 ft | 511 kts | 56° |
| 2026-04-25 00:15 | 21.46938 | -153.59116 | 39052 ft | 510 kts | 56° |
| 2026-04-25 00:15 | 21.50542 | -153.52583 | 39054 ft | 510 kts | 56° |
| 2026-04-25 00:16 | 21.54153 | -153.46033 | 39057 ft | 510 kts | 56° |
| 2026-04-25 00:16 | 21.57752 | -153.39493 | 39045 ft | 510 kts | 56° |
| 2026-04-25 00:17 | 21.61364 | -153.32922 | 39041 ft | 511 kts | 57° |
| 2026-04-25 00:17 | 21.64956 | -153.26381 | 39053 ft | 510 kts | 57° |
| 2026-04-25 00:18 | 21.68556 | -153.19817 | 39046 ft | 510 kts | 56° |
| 2026-04-25 00:18 | 21.72144 | -153.13243 | 39040 ft | 511 kts | 58° |
| 2026-04-25 00:19 | 21.75534 | -153.06526 | 39038 ft | 511 kts | 59° |
| 2026-04-25 00:19 | 21.78909 | -152.99800 | 39055 ft | 511 kts | 59° |
| 2026-04-25 00:20 | 21.82266 | -152.93117 | 39046 ft | 511 kts | 59° |
| 2026-04-25 00:20 | 21.85661 | -152.86362 | 39052 ft | 511 kts | 59° |
| 2026-04-25 00:21 | 21.89007 | -152.79701 | 39050 ft | 510 kts | 59° |
| 2026-04-25 00:21 | 21.92387 | -152.72966 | 39039 ft | 510 kts | 58° |
| 2026-04-25 00:22 | 21.95754 | -152.66251 | 39044 ft | 511 kts | 59° |
| 2026-04-25 00:22 | 21.99127 | -152.59515 | 39053 ft | 511 kts | 59° |
| 2026-04-25 00:23 | 22.02508 | -152.52754 | 39039 ft | 510 kts | 59° |
| 2026-04-25 00:23 | 22.05845 | -152.46074 | 39038 ft | 509 kts | 58° |
| 2026-04-25 00:24 | 22.09213 | -152.39325 | 39047 ft | 512 kts | 58° |
| 2026-04-25 00:24 | 22.12564 | -152.32599 | 39036 ft | 509 kts | 59° |
| 2026-04-25 00:25 | 22.15910 | -152.25874 | 39041 ft | 509 kts | 59° |
| 2026-04-25 00:25 | 22.19251 | -152.19154 | 39031 ft | 510 kts | 59° |
| 2026-04-25 00:26 | 22.22595 | -152.12415 | 39045 ft | 508 kts | 59° |
| 2026-04-25 00:26 | 22.25939 | -152.05670 | 39043 ft | 509 kts | 59° |
| 2026-04-25 00:27 | 22.29279 | -151.98923 | 39032 ft | 510 kts | 59° |
| 2026-04-25 00:27 | 22.32603 | -151.92201 | 39052 ft | 509 kts | 59° |
| 2026-04-25 00:28 | 22.35935 | -151.85442 | 39046 ft | 507 kts | 59° |
| 2026-04-25 00:28 | 22.39221 | -151.78735 | 39044 ft | 508 kts | 59° |
| 2026-04-25 00:29 | 22.42534 | -151.71965 | 39050 ft | 508 kts | 59° |
| 2026-04-25 00:29 | 22.45818 | -151.65247 | 39049 ft | 506 kts | 59° |
| 2026-04-25 00:30 | 22.49083 | -151.58560 | 39041 ft | 507 kts | 59° |
| 2026-04-25 00:30 | 22.52385 | -151.51787 | 39051 ft | 507 kts | 59° |
| 2026-04-25 00:31 | 22.55654 | -151.45073 | 39044 ft | 506 kts | 60° |
| 2026-04-25 00:31 | 22.58946 | -151.38303 | 39043 ft | 507 kts | 59° |
| 2026-04-25 00:32 | 22.62208 | -151.31586 | 39039 ft | 506 kts | 60° |
| 2026-04-25 00:32 | 22.65470 | -151.24861 | 39043 ft | 506 kts | 60° |
| 2026-04-25 00:33 | 22.68738 | -151.18115 | 39030 ft | 507 kts | 60° |
| 2026-04-25 00:33 | 22.71995 | -151.11379 | 39046 ft | 505 kts | 60° |
| 2026-04-25 00:34 | 22.75253 | -151.04637 | 39047 ft | 505 kts | 60° |
| 2026-04-25 00:34 | 22.78506 | -150.97893 | 39044 ft | 506 kts | 60° |
| 2026-04-25 00:35 | 22.81779 | -150.91101 | 39048 ft | 505 kts | 60° |
| 2026-04-25 00:35 | 22.85029 | -150.84343 | 39045 ft | 505 kts | 60° |
| 2026-04-25 00:36 | 22.88254 | -150.77631 | 39056 ft | 505 kts | 60° |
| 2026-04-25 00:36 | 22.91487 | -150.70892 | 39056 ft | 504 kts | 60° |
| 2026-04-25 00:37 | 22.94723 | -150.64140 | 39058 ft | 505 kts | 60° |
| 2026-04-25 00:37 | 22.97961 | -150.57373 | 39065 ft | 504 kts | 60° |
| 2026-04-25 00:38 | 23.01172 | -150.50653 | 39055 ft | 503 kts | 60° |
| 2026-04-25 00:38 | 23.04395 | -150.43901 | 39055 ft | 504 kts | 60° |
| 2026-04-25 00:39 | 23.07606 | -150.37161 | 39060 ft | 503 kts | 60° |
| 2026-04-25 00:39 | 23.10816 | -150.30417 | 39045 ft | 504 kts | 60° |
| 2026-04-25 00:40 | 23.14020 | -150.23675 | 39063 ft | 503 kts | 60° |
| 2026-04-25 00:40 | 23.17218 | -150.16937 | 39049 ft | 501 kts | 60° |
| 2026-04-25 00:41 | 23.20393 | -150.10236 | 39060 ft | 501 kts | 60° |
| 2026-04-25 00:41 | 23.23588 | -150.03488 | 39062 ft | 502 kts | 60° |
| 2026-04-25 00:42 | 23.26761 | -149.96773 | 39062 ft | 499 kts | 60° |
| 2026-04-25 00:42 | 23.29951 | -149.90015 | 39071 ft | 500 kts | 60° |
| 2026-04-25 00:43 | 23.33096 | -149.83342 | 39060 ft | 497 kts | 60° |
| 2026-04-25 00:43 | 23.36250 | -149.76642 | 39062 ft | 498 kts | 60° |
| 2026-04-25 00:44 | 23.39406 | -149.69926 | 39060 ft | 498 kts | 60° |
| 2026-04-25 00:44 | 23.42552 | -149.63225 | 39070 ft | 498 kts | 60° |
| 2026-04-25 00:45 | 23.45701 | -149.56508 | 39080 ft | 496 kts | 60° |
| 2026-04-25 00:45 | 23.48814 | -149.49857 | 39058 ft | 495 kts | 60° |
| 2026-04-25 00:46 | 23.51953 | -149.43143 | 39066 ft | 497 kts | 60° |
| 2026-04-25 00:47 | 23.56634 | -149.33109 | 39064 ft | 493 kts | 60° |
| 2026-04-25 00:47 | 23.59739 | -149.26443 | 39057 ft | 493 kts | 60° |
| 2026-04-25 00:48 | 23.62818 | -149.19827 | 39065 ft | 494 kts | 60° |
| 2026-04-25 00:48 | 23.65916 | -149.13158 | 39059 ft | 492 kts | 60° |
| 2026-04-25 00:49 | 23.69001 | -149.06506 | 39061 ft | 493 kts | 60° |
| 2026-04-25 00:49 | 23.72080 | -148.99860 | 39065 ft | 491 kts | 60° |
| 2026-04-25 00:50 | 23.75154 | -148.93214 | 39064 ft | 489 kts | 60° |
| 2026-04-25 00:50 | 23.78217 | -148.86585 | 39054 ft | 490 kts | 60° |
| 2026-04-25 00:51 | 23.81275 | -148.79956 | 39068 ft | 490 kts | 60° |
| 2026-04-25 00:51 | 23.84333 | -148.73317 | 39058 ft | 489 kts | 60° |
| 2026-04-25 00:52 | 23.87385 | -148.66684 | 39070 ft | 490 kts | 60° |
| 2026-04-25 00:52 | 23.90419 | -148.60077 | 39075 ft | 487 kts | 60° |
| 2026-04-25 00:53 | 23.93458 | -148.53453 | 39076 ft | 490 kts | 60° |
| 2026-04-25 00:53 | 23.96501 | -148.46811 | 39081 ft | 487 kts | 60° |
| 2026-04-25 00:54 | 23.99525 | -148.40199 | 39092 ft | 487 kts | 60° |
| 2026-04-25 00:54 | 24.02484 | -148.33722 | 39060 ft | 487 kts | 60° |
| 2026-04-25 00:55 | 24.05503 | -148.27106 | 39069 ft | 487 kts | 60° |
| 2026-04-25 00:55 | 24.08541 | -148.20435 | 39079 ft | 486 kts | 60° |
| 2026-04-25 00:56 | 24.11547 | -148.13826 | 39071 ft | 487 kts | 60° |
| 2026-04-25 00:56 | 24.14547 | -148.07220 | 39083 ft | 487 kts | 60° |
| 2026-04-25 00:57 | 24.17490 | -148.00732 | 39079 ft | 486 kts | 60° |
| 2026-04-25 00:57 | 24.20498 | -147.94093 | 39063 ft | 486 kts | 60° |
| 2026-04-25 00:58 | 24.23493 | -147.87471 | 39079 ft | 486 kts | 60° |
| 2026-04-25 00:58 | 24.26487 | -147.80841 | 39043 ft | 485 kts | 60° |
| 2026-04-25 00:59 | 24.29462 | -147.74248 | 39067 ft | 486 kts | 60° |
| 2026-04-25 00:59 | 24.32442 | -147.67629 | 39071 ft | 486 kts | 60° |
| 2026-04-25 01:00 | 24.35416 | -147.61015 | 39075 ft | 484 kts | 60° |
| 2026-04-25 01:00 | 24.38401 | -147.54369 | 39064 ft | 485 kts | 60° |
| 2026-04-25 01:01 | 24.41368 | -147.47754 | 39069 ft | 484 kts | 60° |
| 2026-04-25 01:01 | 24.44320 | -147.41161 | 39080 ft | 484 kts | 60° |
| 2026-04-25 01:02 | 24.47295 | -147.34508 | 39064 ft | 484 kts | 61° |
| 2026-04-25 01:02 | 24.50244 | -147.27902 | 39074 ft | 484 kts | 61° |
| 2026-04-25 01:03 | 24.53190 | -147.21295 | 39058 ft | 483 kts | 60° |
| 2026-04-25 01:03 | 24.56137 | -147.14676 | 39056 ft | 483 kts | 60° |
| 2026-04-25 01:04 | 24.59099 | -147.08014 | 39059 ft | 484 kts | 60° |
| 2026-04-25 01:04 | 24.62022 | -147.01428 | 39057 ft | 483 kts | 60° |
| 2026-04-25 01:05 | 24.64979 | -146.94760 | 39068 ft | 485 kts | 60° |
| 2026-04-25 01:05 | 24.67905 | -146.88147 | 39054 ft | 482 kts | 60° |
| 2026-04-25 01:06 | 24.70836 | -146.81516 | 39071 ft | 484 kts | 60° |
| 2026-04-25 01:06 | 24.73783 | -146.74838 | 39060 ft | 484 kts | 60° |
| 2026-04-25 01:07 | 24.76711 | -146.68193 | 39064 ft | 483 kts | 60° |
| 2026-04-25 01:07 | 24.79628 | -146.61565 | 39070 ft | 484 kts | 60° |
| 2026-04-25 01:08 | 24.82556 | -146.54901 | 39061 ft | 483 kts | 60° |
| 2026-04-25 01:08 | 24.85463 | -146.48274 | 39067 ft | 482 kts | 60° |
| 2026-04-25 01:09 | 24.88369 | -146.41641 | 39066 ft | 483 kts | 60° |
| 2026-04-25 01:09 | 24.91283 | -146.34981 | 39074 ft | 483 kts | 61° |
| 2026-04-25 01:10 | 24.94195 | -146.28313 | 39076 ft | 482 kts | 61° |
| 2026-04-25 01:10 | 24.97098 | -146.21657 | 39068 ft | 481 kts | 61° |
| 2026-04-25 01:11 | 24.99977 | -146.15045 | 39068 ft | 482 kts | 61° |
| 2026-04-25 01:11 | 25.02885 | -146.08359 | 39066 ft | 483 kts | 61° |
| 2026-04-25 01:12 | 25.05767 | -146.01721 | 39067 ft | 481 kts | 61° |
| 2026-04-25 01:12 | 25.08655 | -145.95059 | 39066 ft | 483 kts | 61° |
| 2026-04-25 01:13 | 25.11539 | -145.88396 | 39068 ft | 483 kts | 61° |
| 2026-04-25 01:13 | 25.14431 | -145.81706 | 39073 ft | 483 kts | 60° |
| 2026-04-25 01:14 | 25.17309 | -145.75037 | 39079 ft | 484 kts | 61° |
| 2026-04-25 01:14 | 25.20185 | -145.68362 | 39077 ft | 484 kts | 60° |
| 2026-04-25 01:15 | 25.23076 | -145.61646 | 39080 ft | 484 kts | 61° |
| 2026-04-25 01:15 | 25.25964 | -145.54923 | 39081 ft | 484 kts | 61° |
| 2026-04-25 01:16 | 25.28861 | -145.48167 | 39080 ft | 486 kts | 60° |
| 2026-04-25 01:16 | 25.31729 | -145.41464 | 39079 ft | 486 kts | 60° |
| 2026-04-25 01:17 | 25.34612 | -145.34718 | 39076 ft | 487 kts | 61° |
| 2026-04-25 01:17 | 25.37499 | -145.27946 | 39075 ft | 486 kts | 61° |
| 2026-04-25 01:18 | 25.40375 | -145.21196 | 39072 ft | 488 kts | 61° |
| 2026-04-25 01:18 | 25.43260 | -145.14412 | 39078 ft | 487 kts | 61° |
| 2026-04-25 01:19 | 25.46124 | -145.07667 | 39087 ft | 487 kts | 61° |
| 2026-04-25 01:19 | 25.49010 | -145.00861 | 39078 ft | 488 kts | 61° |
| 2026-04-25 01:20 | 25.51902 | -144.94028 | 39077 ft | 489 kts | 61° |
| 2026-04-25 01:20 | 25.54760 | -144.87265 | 39086 ft | 488 kts | 61° |
| 2026-04-25 01:21 | 25.57641 | -144.80435 | 39082 ft | 489 kts | 61° |
| 2026-04-25 01:21 | 25.60496 | -144.73660 | 39082 ft | 489 kts | 61° |
| 2026-04-25 01:22 | 25.63366 | -144.66836 | 39088 ft | 488 kts | 61° |
| 2026-04-25 01:22 | 25.66246 | -144.59979 | 39082 ft | 489 kts | 61° |
| 2026-04-25 01:23 | 25.69097 | -144.53178 | 39081 ft | 489 kts | 60° |
| 2026-04-25 01:23 | 25.71950 | -144.46364 | 39091 ft | 489 kts | 61° |
| 2026-04-25 01:24 | 25.74819 | -144.39500 | 39081 ft | 488 kts | 61° |
| 2026-04-25 01:24 | 25.77662 | -144.32687 | 39075 ft | 491 kts | 61° |
| 2026-04-25 01:25 | 25.80517 | -144.25833 | 39087 ft | 488 kts | 61° |
| 2026-04-25 01:25 | 25.83362 | -144.18996 | 39081 ft | 489 kts | 61° |
| 2026-04-25 01:26 | 25.86200 | -144.12160 | 39079 ft | 490 kts | 61° |
| 2026-04-25 01:26 | 25.89032 | -144.05330 | 39080 ft | 489 kts | 61° |
| 2026-04-25 01:27 | 25.91878 | -143.98456 | 39082 ft | 490 kts | 61° |
| 2026-04-25 01:27 | 25.94719 | -143.91582 | 39089 ft | 490 kts | 61° |
| 2026-04-25 01:28 | 25.98978 | -143.81256 | 39083 ft | 491 kts | 61° |
| 2026-04-25 01:28 | 26.01812 | -143.74368 | 39098 ft | 489 kts | 61° |
| 2026-04-25 01:29 | 26.04635 | -143.67500 | 39089 ft | 492 kts | 61° |
| 2026-04-25 01:29 | 26.07474 | -143.60579 | 39095 ft | 492 kts | 61° |
| 2026-04-25 01:30 | 26.10287 | -143.53713 | 39085 ft | 492 kts | 61° |
| 2026-04-25 01:30 | 26.13146 | -143.46719 | 39099 ft | 495 kts | 61° |
| 2026-04-25 01:31 | 26.15976 | -143.39786 | 39093 ft | 491 kts | 61° |
| 2026-04-25 01:31 | 26.18783 | -143.32901 | 39092 ft | 495 kts | 61° |
| 2026-04-25 01:32 | 26.21629 | -143.25906 | 39092 ft | 495 kts | 61° |
| 2026-04-25 01:32 | 26.24456 | -143.18945 | 39100 ft | 494 kts | 61° |
| 2026-04-25 01:33 | 26.27280 | -143.11980 | 39091 ft | 496 kts | 61° |
| 2026-04-25 01:33 | 26.30119 | -143.04968 | 39100 ft | 496 kts | 61° |
| 2026-04-25 01:34 | 26.32933 | -142.98006 | 39096 ft | 497 kts | 61° |
| 2026-04-25 01:34 | 26.35771 | -142.90971 | 39094 ft | 497 kts | 61° |
| 2026-04-25 01:35 | 26.38601 | -142.83945 | 39105 ft | 496 kts | 61° |
| 2026-04-25 01:35 | 26.41419 | -142.76938 | 39087 ft | 496 kts | 61° |
| 2026-04-25 01:36 | 26.44240 | -142.69910 | 39104 ft | 498 kts | 61° |
| 2026-04-25 01:36 | 26.47058 | -142.62875 | 39100 ft | 496 kts | 61° |
| 2026-04-25 01:37 | 26.49867 | -142.55855 | 39114 ft | 499 kts | 61° |
| 2026-04-25 01:37 | 26.52704 | -142.48753 | 39103 ft | 497 kts | 61° |
| 2026-04-25 01:38 | 26.55494 | -142.41754 | 39109 ft | 498 kts | 61° |
| 2026-04-25 01:38 | 26.58301 | -142.34700 | 39111 ft | 497 kts | 62° |
| 2026-04-25 01:39 | 26.61093 | -142.27672 | 39091 ft | 499 kts | 62° |
| 2026-04-25 01:39 | 26.63909 | -142.20575 | 39095 ft | 499 kts | 62° |
| 2026-04-25 01:40 | 26.66706 | -142.13506 | 39102 ft | 498 kts | 62° |
| 2026-04-25 01:40 | 26.69507 | -142.06419 | 39099 ft | 499 kts | 62° |
| 2026-04-25 01:41 | 26.72317 | -141.99298 | 39102 ft | 500 kts | 62° |
| 2026-04-25 01:41 | 26.75095 | -141.92244 | 39097 ft | 498 kts | 62° |
| 2026-04-25 01:42 | 26.77901 | -141.85109 | 39104 ft | 499 kts | 62° |
| 2026-04-25 01:42 | 26.80689 | -141.78003 | 39100 ft | 499 kts | 62° |
| 2026-04-25 01:43 | 26.83472 | -141.70901 | 39101 ft | 500 kts | 62° |
| 2026-04-25 01:43 | 26.86239 | -141.63823 | 39106 ft | 499 kts | 62° |
| 2026-04-25 01:44 | 26.89023 | -141.56694 | 39107 ft | 501 kts | 62° |
| 2026-04-25 01:44 | 26.91807 | -141.49548 | 39104 ft | 500 kts | 62° |
| 2026-04-25 01:45 | 26.94584 | -141.42409 | 39107 ft | 501 kts | 62° |
| 2026-04-25 01:45 | 26.97354 | -141.35278 | 39103 ft | 502 kts | 62° |
| 2026-04-25 01:46 | 27.00132 | -141.28111 | 39088 ft | 501 kts | 62° |
| 2026-04-25 01:46 | 27.02902 | -141.20950 | 39092 ft | 503 kts | 63° |
| 2026-04-25 01:47 | 27.05675 | -141.13773 | 39094 ft | 504 kts | 63° |
| 2026-04-25 01:47 | 27.08448 | -141.06578 | 39092 ft | 502 kts | 63° |
| 2026-04-25 01:48 | 27.11228 | -140.99353 | 39096 ft | 504 kts | 63° |
| 2026-04-25 01:48 | 27.13978 | -140.92194 | 39099 ft | 503 kts | 63° |
| 2026-04-25 01:49 | 27.16756 | -140.84949 | 39094 ft | 503 kts | 63° |
| 2026-04-25 01:49 | 27.19498 | -140.77783 | 39103 ft | 504 kts | 63° |
| 2026-04-25 01:50 | 27.22263 | -140.70546 | 39094 ft | 504 kts | 63° |
| 2026-04-25 01:50 | 27.25026 | -140.63300 | 39103 ft | 504 kts | 63° |
| 2026-04-25 01:51 | 27.27770 | -140.56090 | 39101 ft | 505 kts | 63° |
| 2026-04-25 01:51 | 27.30529 | -140.48830 | 39104 ft | 505 kts | 63° |
| 2026-04-25 01:52 | 27.33271 | -140.41597 | 39104 ft | 505 kts | 63° |
| 2026-04-25 01:52 | 27.36022 | -140.34329 | 39107 ft | 506 kts | 63° |
| 2026-04-25 01:53 | 27.38768 | -140.27061 | 39095 ft | 508 kts | 63° |
| 2026-04-25 01:53 | 27.41514 | -140.19777 | 39095 ft | 505 kts | 63° |
| 2026-04-25 01:54 | 27.44259 | -140.12485 | 39093 ft | 507 kts | 63° |
| 2026-04-25 01:54 | 27.46991 | -140.05214 | 39102 ft | 508 kts | 63° |
| 2026-04-25 01:55 | 27.49731 | -139.97903 | 39104 ft | 506 kts | 63° |
| 2026-04-25 01:55 | 27.52453 | -139.90633 | 39101 ft | 507 kts | 63° |
| 2026-04-25 01:56 | 27.55195 | -139.83293 | 39102 ft | 508 kts | 63° |
| 2026-04-25 01:56 | 27.57922 | -139.75978 | 39105 ft | 507 kts | 63° |
| 2026-04-25 01:57 | 27.62024 | -139.64951 | 39101 ft | 507 kts | 64° |
| 2026-04-25 01:58 | 27.64739 | -139.57634 | 39104 ft | 509 kts | 64° |
| 2026-04-25 01:58 | 27.67456 | -139.50297 | 39109 ft | 509 kts | 63° |
| 2026-04-25 01:59 | 27.70166 | -139.42966 | 39121 ft | 509 kts | 64° |
| 2026-04-25 01:59 | 27.72870 | -139.35635 | 39122 ft | 509 kts | 64° |
| 2026-04-25 02:00 | 27.75588 | -139.28253 | 39101 ft | 507 kts | 64° |
| 2026-04-25 02:00 | 27.78285 | -139.20918 | 39105 ft | 509 kts | 64° |
| 2026-04-25 02:01 | 27.81001 | -139.13512 | 39107 ft | 509 kts | 64° |
| 2026-04-25 02:01 | 27.83685 | -139.06178 | 39102 ft | 508 kts | 64° |
| 2026-04-25 02:02 | 27.86392 | -138.98770 | 39118 ft | 509 kts | 64° |
| 2026-04-25 02:02 | 27.89083 | -138.91393 | 39108 ft | 510 kts | 64° |
| 2026-04-25 02:03 | 27.91778 | -138.83984 | 39095 ft | 509 kts | 64° |
| 2026-04-25 02:03 | 27.94459 | -138.76594 | 39119 ft | 508 kts | 64° |
| 2026-04-25 02:04 | 27.97126 | -138.69232 | 39114 ft | 512 kts | 64° |
| 2026-04-25 02:04 | 27.99809 | -138.61806 | 39101 ft | 508 kts | 64° |
| 2026-04-25 02:05 | 28.02489 | -138.54381 | 39114 ft | 511 kts | 64° |
| 2026-04-25 02:05 | 28.05168 | -138.46936 | 39121 ft | 510 kts | 64° |
| 2026-04-25 02:06 | 28.07838 | -138.39504 | 39119 ft | 510 kts | 64° |
| 2026-04-25 02:06 | 28.10513 | -138.32045 | 39097 ft | 511 kts | 64° |
| 2026-04-25 02:07 | 28.13179 | -138.24593 | 39106 ft | 511 kts | 64° |
| 2026-04-25 02:07 | 28.15842 | -138.17139 | 39108 ft | 512 kts | 64° |
| 2026-04-25 02:08 | 28.18492 | -138.09700 | 39112 ft | 512 kts | 64° |
| 2026-04-25 02:08 | 28.21154 | -138.02216 | 39105 ft | 512 kts | 64° |
| 2026-04-25 02:09 | 28.23817 | -137.94716 | 39107 ft | 515 kts | 65° |
| 2026-04-25 02:09 | 28.26468 | -137.87230 | 39113 ft | 511 kts | 65° |
| 2026-04-25 02:10 | 28.29115 | -137.79744 | 39105 ft | 514 kts | 64° |
| 2026-04-25 02:10 | 28.31774 | -137.72208 | 39116 ft | 515 kts | 64° |
| 2026-04-25 02:11 | 28.34415 | -137.64705 | 39102 ft | 511 kts | 65° |
| 2026-04-25 02:11 | 28.37055 | -137.57191 | 39112 ft | 517 kts | 64° |
| 2026-04-25 02:12 | 28.39706 | -137.49632 | 39109 ft | 515 kts | 65° |
| 2026-04-25 02:12 | 28.42345 | -137.42090 | 39111 ft | 516 kts | 64° |
| 2026-04-25 02:13 | 28.44968 | -137.34578 | 39121 ft | 516 kts | 65° |
| 2026-04-25 02:13 | 28.47609 | -137.26997 | 39096 ft | 514 kts | 65° |
| 2026-04-25 02:14 | 28.50226 | -137.19473 | 39092 ft | 516 kts | 65° |
| 2026-04-25 02:14 | 28.52869 | -137.11856 | 39097 ft | 517 kts | 65° |
| 2026-04-25 02:15 | 28.55498 | -137.04262 | 39091 ft | 517 kts | 65° |
| 2026-04-25 02:15 | 28.58118 | -136.96678 | 39111 ft | 516 kts | 65° |
| 2026-04-25 02:16 | 28.60729 | -136.89107 | 39101 ft | 517 kts | 65° |
| 2026-04-25 02:16 | 28.63347 | -136.81500 | 39106 ft | 518 kts | 65° |
| 2026-04-25 02:17 | 28.65965 | -136.73874 | 39105 ft | 516 kts | 65° |
| 2026-04-25 02:17 | 28.68559 | -136.66304 | 39110 ft | 518 kts | 65° |
| 2026-04-25 02:18 | 28.71182 | -136.58632 | 39112 ft | 518 kts | 65° |
| 2026-04-25 02:18 | 28.73772 | -136.51041 | 39107 ft | 518 kts | 65° |
| 2026-04-25 02:19 | 28.76373 | -136.43401 | 39113 ft | 518 kts | 66° |
| 2026-04-25 02:19 | 28.78969 | -136.35756 | 39117 ft | 519 kts | 66° |
| 2026-04-25 02:20 | 28.81567 | -136.28091 | 39099 ft | 519 kts | 66° |
| 2026-04-25 02:20 | 28.84152 | -136.20448 | 39105 ft | 518 kts | 66° |
| 2026-04-25 02:21 | 28.86743 | -136.12775 | 39099 ft | 519 kts | 66° |
| 2026-04-25 02:21 | 28.89310 | -136.05148 | 39110 ft | 517 kts | 66° |
| 2026-04-25 02:22 | 28.91898 | -135.97450 | 39112 ft | 519 kts | 66° |
| 2026-04-25 02:22 | 28.94471 | -135.89777 | 39113 ft | 519 kts | 67° |
| 2026-04-25 02:23 | 28.97034 | -135.82114 | 39114 ft | 519 kts | 67° |
| 2026-04-25 02:23 | 28.99604 | -135.74417 | 39116 ft | 520 kts | 67° |
| 2026-04-25 02:24 | 29.02167 | -135.66724 | 39113 ft | 520 kts | 67° |
| 2026-04-25 02:24 | 29.04734 | -135.59000 | 39122 ft | 520 kts | 68° |
| 2026-04-25 02:25 | 29.07279 | -135.51325 | 39114 ft | 519 kts | 67° |
| 2026-04-25 02:25 | 29.09837 | -135.43594 | 39116 ft | 522 kts | 67° |
| 2026-04-25 02:26 | 29.12394 | -135.35847 | 39115 ft | 520 kts | 68° |
| 2026-04-25 02:26 | 29.14924 | -135.28169 | 39111 ft | 520 kts | 69° |
| 2026-04-25 02:27 | 29.17477 | -135.20401 | 39100 ft | 521 kts | 68° |
| 2026-04-25 02:27 | 29.20001 | -135.12706 | 39097 ft | 519 kts | 69° |
| 2026-04-25 02:28 | 29.22538 | -135.04950 | 39111 ft | 521 kts | 68° |
| 2026-04-25 02:28 | 29.25066 | -134.97209 | 39114 ft | 521 kts | 69° |
| 2026-04-25 02:29 | 29.27594 | -134.89447 | 39115 ft | 520 kts | 69° |
| 2026-04-25 02:29 | 29.30114 | -134.81692 | 39116 ft | 522 kts | 69° |
| 2026-04-25 02:30 | 29.32647 | -134.73881 | 39118 ft | 522 kts | 69° |
| 2026-04-25 02:30 | 29.35156 | -134.66127 | 39107 ft | 522 kts | 69° |
| 2026-04-25 02:31 | 29.37673 | -134.58328 | 39107 ft | 521 kts | 69° |
| 2026-04-25 02:31 | 29.40184 | -134.50529 | 39118 ft | 524 kts | 69° |
| 2026-04-25 02:32 | 29.42699 | -134.42705 | 39120 ft | 523 kts | 69° |
| 2026-04-25 02:32 | 29.45209 | -134.34872 | 39123 ft | 521 kts | 70° |
| 2026-04-25 02:33 | 29.47703 | -134.27075 | 39112 ft | 522 kts | 70° |
| 2026-04-25 02:33 | 29.50186 | -134.19292 | 39105 ft | 524 kts | 70° |
| 2026-04-25 02:34 | 29.52690 | -134.11426 | 39112 ft | 524 kts | 70° |
| 2026-04-25 02:34 | 29.55187 | -134.03564 | 39110 ft | 524 kts | 70° |
| 2026-04-25 02:35 | 29.57659 | -133.95763 | 39114 ft | 524 kts | 70° |
| 2026-04-25 02:35 | 29.60157 | -133.87860 | 39116 ft | 525 kts | 71° |
| 2026-04-25 02:36 | 29.62630 | -133.80017 | 39119 ft | 525 kts | 71° |
| 2026-04-25 02:36 | 29.65109 | -133.72136 | 39117 ft | 525 kts | 70° |
| 2026-04-25 02:37 | 29.67589 | -133.64237 | 39115 ft | 525 kts | 70° |
| 2026-04-25 02:37 | 29.70048 | -133.56381 | 39118 ft | 526 kts | 70° |
| 2026-04-25 02:38 | 29.72525 | -133.48451 | 39119 ft | 527 kts | 71° |
| 2026-04-25 02:38 | 29.74972 | -133.40601 | 39123 ft | 525 kts | 71° |
| 2026-04-25 02:39 | 29.77448 | -133.32632 | 39104 ft | 529 kts | 71° |
| 2026-04-25 02:39 | 29.79896 | -133.24742 | 39110 ft | 526 kts | 71° |
| 2026-04-25 02:40 | 29.82359 | -133.16780 | 39114 ft | 529 kts | 71° |
| 2026-04-25 02:40 | 29.84811 | -133.08835 | 39110 ft | 528 kts | 71° |
| 2026-04-25 02:41 | 29.87254 | -133.00899 | 39118 ft | 526 kts | 71° |
| 2026-04-25 02:41 | 29.89701 | -132.92932 | 39119 ft | 529 kts | 72° |
| 2026-04-25 02:42 | 29.92146 | -132.84953 | 39119 ft | 528 kts | 72° |
| 2026-04-25 02:42 | 29.94585 | -132.76971 | 39119 ft | 528 kts | 72° |
| 2026-04-25 02:43 | 29.97010 | -132.69019 | 39120 ft | 530 kts | 71° |
| 2026-04-25 02:43 | 29.99454 | -132.60980 | 39119 ft | 529 kts | 72° |
| 2026-04-25 02:44 | 30.01863 | -132.53041 | 39128 ft | 529 kts | 72° |
| 2026-04-25 02:44 | 30.04291 | -132.45016 | 39124 ft | 530 kts | 72° |
| 2026-04-25 02:45 | 30.06718 | -132.36977 | 39126 ft | 531 kts | 72° |
| 2026-04-25 02:45 | 30.09124 | -132.28986 | 39118 ft | 530 kts | 73° |
| 2026-04-25 02:46 | 30.11548 | -132.20917 | 39109 ft | 530 kts | 73° |
| 2026-04-25 02:46 | 30.13947 | -132.12909 | 39110 ft | 532 kts | 73° |
| 2026-04-25 02:47 | 30.16347 | -132.04878 | 39112 ft | 529 kts | 73° |
| 2026-04-25 02:47 | 30.18751 | -131.96812 | 39109 ft | 531 kts | 73° |
| 2026-04-25 02:48 | 30.21141 | -131.88773 | 39114 ft | 532 kts | 73° |
| 2026-04-25 02:48 | 30.23538 | -131.80692 | 39103 ft | 533 kts | 73° |
| 2026-04-25 02:49 | 30.25933 | -131.72594 | 39115 ft | 532 kts | 73° |
| 2026-04-25 02:49 | 30.28321 | -131.64502 | 39114 ft | 534 kts | 73° |
| 2026-04-25 02:50 | 30.30700 | -131.56415 | 39115 ft | 533 kts | 73° |
| 2026-04-25 02:50 | 30.33079 | -131.48302 | 39122 ft | 535 kts | 73° |
| 2026-04-25 02:51 | 30.35457 | -131.40175 | 39115 ft | 535 kts | 73° |
| 2026-04-25 02:51 | 30.37834 | -131.32030 | 39108 ft | 536 kts | 73° |
| 2026-04-25 02:52 | 30.40205 | -131.23886 | 39108 ft | 536 kts | 74° |
| 2026-04-25 02:52 | 30.42576 | -131.15718 | 39110 ft | 537 kts | 73° |
| 2026-04-25 02:53 | 30.44947 | -131.07532 | 39113 ft | 535 kts | 74° |
| 2026-04-25 02:53 | 30.47311 | -130.99342 | 39112 ft | 539 kts | 74° |
| 2026-04-25 02:54 | 30.49667 | -130.91162 | 39116 ft | 537 kts | 74° |
| 2026-04-25 02:54 | 30.52022 | -130.82964 | 39116 ft | 538 kts | 74° |
| 2026-04-25 02:55 | 30.54374 | -130.74756 | 39116 ft | 538 kts | 74° |
| 2026-04-25 02:55 | 30.56728 | -130.66516 | 39116 ft | 540 kts | 74° |
| 2026-04-25 02:56 | 30.59077 | -130.58273 | 39116 ft | 539 kts | 74° |
| 2026-04-25 02:56 | 30.61419 | -130.50030 | 39120 ft | 539 kts | 74° |
| 2026-04-25 02:57 | 30.63767 | -130.41745 | 39120 ft | 542 kts | 74° |
| 2026-04-25 02:57 | 30.66103 | -130.33482 | 39114 ft | 541 kts | 75° |
| 2026-04-25 02:58 | 30.68436 | -130.25206 | 39111 ft | 540 kts | 75° |
| 2026-04-25 02:58 | 30.70773 | -130.16888 | 39115 ft | 541 kts | 75° |
| 2026-04-25 02:59 | 30.73092 | -130.08618 | 39116 ft | 543 kts | 75° |
| 2026-04-25 02:59 | 30.75415 | -130.00308 | 39114 ft | 542 kts | 75° |
| 2026-04-25 03:00 | 30.77735 | -129.91989 | 39119 ft | 542 kts | 75° |
| 2026-04-25 03:00 | 30.80051 | -129.83656 | 39120 ft | 542 kts | 75° |
| 2026-04-25 03:01 | 30.82371 | -129.75287 | 39118 ft | 546 kts | 75° |
| 2026-04-25 03:01 | 30.84681 | -129.66933 | 39120 ft | 542 kts | 75° |
| 2026-04-25 03:02 | 30.86988 | -129.58566 | 39121 ft | 547 kts | 74° |
| 2026-04-25 03:02 | 30.89292 | -129.50186 | 39124 ft | 545 kts | 75° |
| 2026-04-25 03:03 | 30.91586 | -129.41818 | 39128 ft | 544 kts | 75° |
| 2026-04-25 03:03 | 30.93875 | -129.33444 | 39120 ft | 547 kts | 75° |
| 2026-04-25 03:04 | 30.96158 | -129.25069 | 39119 ft | 545 kts | 75° |
| 2026-04-25 03:04 | 30.98441 | -129.16666 | 39117 ft | 547 kts | 75° |
| 2026-04-25 03:05 | 31.01869 | -129.04011 | 39124 ft | 548 kts | 75° |
| 2026-04-25 03:05 | 31.04140 | -128.95596 | 39116 ft | 546 kts | 75° |
| 2026-04-25 03:06 | 31.06417 | -128.87135 | 39120 ft | 546 kts | 75° |
| 2026-04-25 03:06 | 31.08670 | -128.78737 | 39124 ft | 545 kts | 75° |
| 2026-04-25 03:07 | 31.10920 | -128.70325 | 39108 ft | 547 kts | 75° |
| 2026-04-25 03:07 | 31.13173 | -128.61879 | 39109 ft | 546 kts | 75° |
| 2026-04-25 03:08 | 31.15422 | -128.53426 | 39116 ft | 547 kts | 75° |
| 2026-04-25 03:08 | 31.17663 | -128.44974 | 39111 ft | 546 kts | 75° |
| 2026-04-25 03:09 | 31.19890 | -128.36554 | 39105 ft | 545 kts | 75° |
| 2026-04-25 03:09 | 31.22116 | -128.28110 | 39094 ft | 546 kts | 76° |
| 2026-04-25 03:10 | 31.24346 | -128.19626 | 39104 ft | 547 kts | 76° |
| 2026-04-25 03:10 | 31.26557 | -128.11189 | 39088 ft | 545 kts | 76° |
| 2026-04-25 03:11 | 31.28767 | -128.02731 | 39093 ft | 545 kts | 76° |
| 2026-04-25 03:11 | 31.30984 | -127.94222 | 39099 ft | 547 kts | 76° |
| 2026-04-25 03:12 | 31.33188 | -127.85738 | 39091 ft | 545 kts | 76° |
| 2026-04-25 03:12 | 31.35368 | -127.77319 | 39093 ft | 547 kts | 75° |
| 2026-04-25 03:13 | 31.37564 | -127.68813 | 39094 ft | 546 kts | 76° |
| 2026-04-25 03:13 | 31.39754 | -127.60307 | 39101 ft | 547 kts | 76° |
| 2026-04-25 03:14 | 31.41937 | -127.51800 | 39100 ft | 545 kts | 75° |
| 2026-04-25 03:14 | 31.44105 | -127.43327 | 39098 ft | 545 kts | 76° |
| 2026-04-25 03:15 | 31.46262 | -127.34871 | 39105 ft | 548 kts | 76° |
| 2026-04-25 03:15 | 31.48435 | -127.26327 | 39084 ft | 545 kts | 76° |
| 2026-04-25 03:16 | 31.50584 | -127.17851 | 39088 ft | 548 kts | 76° |
| 2026-04-25 03:16 | 31.52741 | -127.09315 | 39087 ft | 547 kts | 76° |
| 2026-04-25 03:17 | 31.54883 | -127.00816 | 39090 ft | 546 kts | 76° |
| 2026-04-25 03:17 | 31.57040 | -126.92224 | 39092 ft | 548 kts | 76° |
| 2026-04-25 03:18 | 31.59167 | -126.83733 | 39094 ft | 547 kts | 76° |
| 2026-04-25 03:18 | 31.61299 | -126.75191 | 39096 ft | 548 kts | 76° |
| 2026-04-25 03:19 | 31.63426 | -126.66646 | 39096 ft | 547 kts | 76° |
| 2026-04-25 03:19 | 31.65562 | -126.58036 | 39100 ft | 547 kts | 76° |
| 2026-04-25 03:20 | 31.67678 | -126.49477 | 39101 ft | 548 kts | 76° |
| 2026-04-25 03:20 | 31.69786 | -126.40926 | 39102 ft | 547 kts | 75° |
| 2026-04-25 03:21 | 31.71897 | -126.32336 | 39088 ft | 549 kts | 76° |
| 2026-04-25 03:21 | 31.73981 | -126.23826 | 39089 ft | 546 kts | 76° |
| 2026-04-25 03:22 | 31.76090 | -126.15190 | 39089 ft | 550 kts | 76° |
| 2026-04-25 03:22 | 31.78176 | -126.06620 | 39092 ft | 548 kts | 76° |
| 2026-04-25 03:23 | 31.80259 | -125.98034 | 39095 ft | 549 kts | 76° |
| 2026-04-25 03:23 | 31.82343 | -125.89412 | 39100 ft | 548 kts | 76° |
| 2026-04-25 03:24 | 31.84400 | -125.80881 | 39103 ft | 547 kts | 76° |
| 2026-04-25 03:24 | 31.86463 | -125.72293 | 39100 ft | 550 kts | 76° |
| 2026-04-25 03:25 | 31.88534 | -125.63648 | 39095 ft | 550 kts | 76° |
| 2026-04-25 03:25 | 31.90600 | -125.54990 | 39092 ft | 549 kts | 76° |
| 2026-04-25 03:26 | 31.92652 | -125.46365 | 39103 ft | 550 kts | 76° |
| 2026-04-25 03:26 | 31.94701 | -125.37723 | 39102 ft | 550 kts | 75° |
| 2026-04-25 03:27 | 31.96746 | -125.29073 | 39079 ft | 551 kts | 76° |
| 2026-04-25 03:27 | 31.98779 | -125.20444 | 39085 ft | 549 kts | 76° |
| 2026-04-25 03:28 | 32.00812 | -125.11785 | 39069 ft | 551 kts | 76° |
| 2026-04-25 03:28 | 32.02836 | -125.03134 | 39079 ft | 550 kts | 76° |
| 2026-04-25 03:29 | 32.04872 | -124.94403 | 39081 ft | 552 kts | 76° |
| 2026-04-25 03:29 | 32.06885 | -124.85743 | 39079 ft | 551 kts | 76° |
| 2026-04-25 03:30 | 32.08898 | -124.77055 | 39085 ft | 551 kts | 76° |
| 2026-04-25 03:30 | 32.10901 | -124.68380 | 39071 ft | 552 kts | 76° |
| 2026-04-25 03:31 | 32.12898 | -124.59699 | 39077 ft | 550 kts | 76° |
| 2026-04-25 03:31 | 32.14895 | -124.50990 | 39078 ft | 551 kts | 76° |
| 2026-04-25 03:32 | 32.16884 | -124.42284 | 39074 ft | 550 kts | 76° |
| 2026-04-25 03:32 | 32.18862 | -124.33598 | 39070 ft | 551 kts | 77° |
| 2026-04-25 03:33 | 32.20839 | -124.24889 | 39065 ft | 549 kts | 77° |
| 2026-04-25 03:33 | 32.22797 | -124.16231 | 39058 ft | 551 kts | 77° |
| 2026-04-25 03:34 | 32.24755 | -124.07491 | 39061 ft | 551 kts | 78° |
| 2026-04-25 03:34 | 32.26579 | -123.98731 | 39063 ft | 550 kts | 78° |
| 2026-04-25 03:35 | 32.28399 | -123.89932 | 39059 ft | 553 kts | 78° |
| 2026-04-25 03:35 | 32.30213 | -123.81144 | 39061 ft | 552 kts | 78° |
| 2026-04-25 03:36 | 32.32023 | -123.72360 | 39054 ft | 552 kts | 78° |
| 2026-04-25 03:36 | 32.33830 | -123.63558 | 39056 ft | 553 kts | 78° |
| 2026-04-25 03:37 | 32.35637 | -123.54732 | 39056 ft | 552 kts | 78° |
| 2026-04-25 03:37 | 32.37427 | -123.45952 | 39055 ft | 554 kts | 78° |
| 2026-04-25 03:38 | 32.39218 | -123.37138 | 39049 ft | 553 kts | 78° |
| 2026-04-25 03:38 | 32.41013 | -123.28269 | 39028 ft | 554 kts | 78° |
| 2026-04-25 03:39 | 32.42797 | -123.19425 | 39027 ft | 555 kts | 78° |
| 2026-04-25 03:39 | 32.44566 | -123.10617 | 39026 ft | 554 kts | 78° |
| 2026-04-25 03:40 | 32.46338 | -123.01765 | 39029 ft | 556 kts | 78° |
| 2026-04-25 03:40 | 32.48276 | -122.92905 | 39026 ft | 557 kts | 76° |
| 2026-04-25 03:41 | 32.50344 | -122.84076 | 39031 ft | 556 kts | 76° |
| 2026-04-25 03:41 | 32.52388 | -122.75284 | 39032 ft | 556 kts | 76° |
| 2026-04-25 03:42 | 32.54419 | -122.66482 | 39032 ft | 557 kts | 76° |
| 2026-04-25 03:42 | 32.56448 | -122.57641 | 39030 ft | 556 kts | 76° |
| 2026-04-25 03:43 | 32.58461 | -122.48830 | 39037 ft | 555 kts | 76° |
| 2026-04-25 03:43 | 32.60480 | -122.39954 | 39034 ft | 558 kts | 75° |
| 2026-04-25 03:44 | 32.62482 | -122.31121 | 39017 ft | 555 kts | 76° |
| 2026-04-25 03:44 | 32.64472 | -122.22308 | 39015 ft | 558 kts | 76° |
| 2026-04-25 03:45 | 32.66468 | -122.13434 | 39021 ft | 558 kts | 76° |
| 2026-04-25 03:45 | 32.68828 | -122.04708 | 39011 ft | 555 kts | 64° |
| 2026-04-25 03:46 | 32.72664 | -121.96758 | 39013 ft | 556 kts | 56° |
| 2026-04-25 03:46 | 32.76708 | -121.89021 | 39020 ft | 553 kts | 56° |
| 2026-04-25 03:47 | 32.80769 | -121.81234 | 39017 ft | 555 kts | 56° |
| 2026-04-25 03:47 | 32.84826 | -121.73428 | 39014 ft | 555 kts | 56° |
| 2026-04-25 03:48 | 32.88866 | -121.65634 | 39013 ft | 555 kts | 56° |
| 2026-04-25 03:48 | 32.92913 | -121.57808 | 39014 ft | 555 kts | 56° |
| 2026-04-25 03:49 | 32.96931 | -121.50022 | 39012 ft | 556 kts | 56° |
| 2026-04-25 03:49 | 33.00955 | -121.42206 | 39013 ft | 556 kts | 56° |
| 2026-04-25 03:50 | 33.04985 | -121.34362 | 38999 ft | 556 kts | 56° |
| 2026-04-25 03:50 | 33.08995 | -121.26539 | 38984 ft | 555 kts | 56° |
| 2026-04-25 03:51 | 33.13006 | -121.18697 | 38982 ft | 556 kts | 56° |
| 2026-04-25 03:51 | 33.17023 | -121.10825 | 38981 ft | 555 kts | 56° |
| 2026-04-25 03:52 | 33.21051 | -121.02917 | 38977 ft | 557 kts | 56° |
| 2026-04-25 03:52 | 33.24624 | -120.95887 | 38995 ft | 555 kts | 56° |
| 2026-04-25 03:53 | 33.28612 | -120.88026 | 38979 ft | 557 kts | 56° |
| 2026-04-25 03:53 | 33.32599 | -120.80148 | 38921 ft | 549 kts | 56° |
| 2026-04-25 03:54 | 33.34562 | -120.76260 | 38146 ft | 551 kts | 56° |
| 2026-04-25 03:54 | 33.36548 | -120.72330 | 36759 ft | 558 kts | 56° |
| 2026-04-25 03:54 | 33.38556 | -120.68348 | 35979 ft | 558 kts | 56° |
| 2026-04-25 03:54 | 33.40527 | -120.64435 | 35360 ft | 557 kts | 56° |
| 2026-04-25 03:55 | 33.42523 | -120.60465 | 34562 ft | 559 kts | 56° |
| 2026-04-25 03:55 | 33.44527 | -120.56481 | 33623 ft | 564 kts | 56° |
| 2026-04-25 03:55 | 33.46549 | -120.52454 | 32586 ft | 568 kts | 56° |
| 2026-04-25 03:55 | 33.48586 | -120.48392 | 31547 ft | 570 kts | 56° |
| 2026-04-25 03:56 | 33.50615 | -120.44341 | 30546 ft | 571 kts | 56° |
| 2026-04-25 03:56 | 33.52617 | -120.40338 | 29898 ft | 562 kts | 56° |
| 2026-04-25 03:56 | 33.54621 | -120.36324 | 29323 ft | 549 kts | 56° |
| 2026-04-25 03:56 | 33.56541 | -120.32474 | 28685 ft | 539 kts | 56° |
| 2026-04-25 03:57 | 33.58454 | -120.28637 | 28019 ft | 529 kts | 56° |
| 2026-04-25 03:57 | 33.60291 | -120.24947 | 27374 ft | 520 kts | 56° |
| 2026-04-25 03:57 | 33.62138 | -120.21236 | 26735 ft | 510 kts | 56° |
| 2026-04-25 03:57 | 33.63938 | -120.17613 | 26102 ft | 501 kts | 56° |
| 2026-04-25 03:58 | 33.65693 | -120.14082 | 25483 ft | 492 kts | 56° |
| 2026-04-25 03:58 | 33.67424 | -120.10593 | 24875 ft | 484 kts | 56° |
| 2026-04-25 03:58 | 33.69120 | -120.07172 | 24288 ft | 478 kts | 56° |
| 2026-04-25 03:58 | 33.70808 | -120.03766 | 23679 ft | 475 kts | 56° |
| 2026-04-25 03:59 | 33.72507 | -120.00332 | 23056 ft | 472 kts | 55° |
| 2026-04-25 03:59 | 33.74153 | -119.97005 | 22446 ft | 470 kts | 56° |
| 2026-04-25 03:59 | 33.75818 | -119.93636 | 21826 ft | 467 kts | 56° |
| 2026-04-25 03:59 | 33.77481 | -119.90265 | 21180 ft | 465 kts | 56° |
| 2026-04-25 04:00 | 33.79115 | -119.86953 | 20540 ft | 462 kts | 56° |
| 2026-04-25 04:00 | 33.80734 | -119.83664 | 19887 ft | 460 kts | 56° |
| 2026-04-25 04:00 | 33.82368 | -119.80344 | 19227 ft | 456 kts | 56° |
| 2026-04-25 04:00 | 33.83959 | -119.77108 | 18580 ft | 453 kts | 56° |
| 2026-04-25 04:01 | 33.85556 | -119.73855 | 17907 ft | 449 kts | 56° |
| 2026-04-25 04:01 | 33.87120 | -119.70668 | 17290 ft | 445 kts | 57° |
| 2026-04-25 04:01 | 33.88670 | -119.67505 | 17006 ft | 430 kts | 57° |
| 2026-04-25 04:01 | 33.90155 | -119.64472 | 16942 ft | 411 kts | 57° |
| 2026-04-25 04:02 | 33.91604 | -119.61528 | 16335 ft | 411 kts | 57° |
| 2026-04-25 04:02 | 33.93077 | -119.58541 | 15347 ft | 419 kts | 57° |
| 2026-04-25 04:02 | 33.94561 | -119.55529 | 14509 ft | 421 kts | 57° |
| 2026-04-25 04:02 | 33.96032 | -119.52537 | 14054 ft | 411 kts | 57° |
| 2026-04-25 04:03 | 33.97472 | -119.49603 | 13572 ft | 402 kts | 57° |
| 2026-04-25 04:03 | 33.98878 | -119.46737 | 12942 ft | 396 kts | 57° |
| 2026-04-25 04:03 | 34.00268 | -119.43902 | 12285 ft | 392 kts | 57° |
| 2026-04-25 04:03 | 34.01626 | -119.41129 | 12012 ft | 382 kts | 57° |
| 2026-04-25 04:04 | 34.03001 | -119.38322 | 11982 ft | 390 kts | 57° |
| 2026-04-25 04:04 | 34.04368 | -119.35526 | 11979 ft | 388 kts | 58° |
| 2026-04-25 04:04 | 34.05741 | -119.32716 | 11979 ft | 391 kts | 58° |
| 2026-04-25 04:04 | 34.07111 | -119.29914 | 11973 ft | 389 kts | 58° |
| 2026-04-25 04:05 | 34.08491 | -119.27090 | 11970 ft | 389 kts | 58° |
| 2026-04-25 04:05 | 34.09853 | -119.24302 | 11954 ft | 383 kts | 58° |
| 2026-04-25 04:05 | 34.11184 | -119.21573 | 11414 ft | 378 kts | 58° |
| 2026-04-25 04:05 | 34.12511 | -119.18852 | 11022 ft | 367 kts | 58° |
| 2026-04-25 04:06 | 34.13757 | -119.16293 | 10971 ft | 348 kts | 58° |
| 2026-04-25 04:06 | 34.14984 | -119.13774 | 10977 ft | 348 kts | 58° |
| 2026-04-25 04:06 | 34.16204 | -119.11269 | 10974 ft | 344 kts | 58° |
| 2026-04-25 04:06 | 34.17176 | -119.08702 | 10962 ft | 328 kts | 74° |
| 2026-04-25 04:07 | 34.17454 | -119.06054 | 10969 ft | 314 kts | 92° |
| 2026-04-25 04:07 | 34.17120 | -119.03471 | 10914 ft | 313 kts | 106° |
| 2026-04-25 04:07 | 34.16418 | -119.00974 | 10772 ft | 307 kts | 112° |
| 2026-04-25 04:07 | 34.15589 | -118.98628 | 10370 ft | 307 kts | 115° |
| 2026-04-25 04:08 | 34.14695 | -118.96289 | 10020 ft | 304 kts | 116° |
| 2026-04-25 04:08 | 34.13810 | -118.94014 | 9975 ft | 301 kts | 116° |
| 2026-04-25 04:08 | 34.12907 | -118.91710 | 9969 ft | 306 kts | 116° |
| 2026-04-25 04:08 | 34.11995 | -118.89379 | 9967 ft | 303 kts | 116° |
| 2026-04-25 04:09 | 34.11091 | -118.87072 | 9975 ft | 306 kts | 116° |
| 2026-04-25 04:09 | 34.10181 | -118.84753 | 9971 ft | 304 kts | 116° |
| 2026-04-25 04:09 | 34.09286 | -118.82469 | 9974 ft | 304 kts | 116° |
| 2026-04-25 04:09 | 34.08375 | -118.80152 | 9974 ft | 305 kts | 116° |
| 2026-04-25 04:10 | 34.07474 | -118.77856 | 9966 ft | 305 kts | 116° |
| 2026-04-25 04:10 | 34.06569 | -118.75554 | 9970 ft | 304 kts | 116° |
| 2026-04-25 04:10 | 34.05673 | -118.73272 | 9956 ft | 295 kts | 116° |
| 2026-04-25 04:10 | 34.04797 | -118.71036 | 9789 ft | 297 kts | 116° |
| 2026-04-25 04:11 | 34.03088 | -118.66406 | 9061 ft | 302 kts | 105° |
| 2026-04-25 04:11 | 34.02722 | -118.63929 | 8692 ft | 300 kts | 97° |
| 2026-04-25 04:11 | 34.02486 | -118.61435 | 8324 ft | 298 kts | 96° |
| 2026-04-25 04:12 | 34.02266 | -118.59005 | 8017 ft | 290 kts | 96° |
| 2026-04-25 04:12 | 34.02048 | -118.56658 | 7984 ft | 274 kts | 96° |
| 2026-04-25 04:12 | 34.01836 | -118.54394 | 7974 ft | 269 kts | 96° |
| 2026-04-25 04:12 | 34.01622 | -118.52121 | 7831 ft | 274 kts | 96° |
| 2026-04-25 04:13 | 34.01410 | -118.49862 | 7591 ft | 272 kts | 96° |
| 2026-04-25 04:13 | 34.01196 | -118.47596 | 7345 ft | 269 kts | 96° |
| 2026-04-25 04:13 | 34.01129 | -118.45390 | 7105 ft | 266 kts | 83° |
| 2026-04-25 04:13 | 34.01440 | -118.43188 | 6864 ft | 266 kts | 77° |
| 2026-04-25 04:14 | 34.01823 | -118.40990 | 6618 ft | 265 kts | 77° |
| 2026-04-25 04:14 | 34.02195 | -118.38866 | 6378 ft | 263 kts | 77° |
| 2026-04-25 04:14 | 34.02565 | -118.36724 | 6139 ft | 261 kts | 77° |
| 2026-04-25 04:14 | 34.02902 | -118.34587 | 5983 ft | 257 kts | 82° |
| 2026-04-25 04:15 | 34.03097 | -118.32449 | 5875 ft | 264 kts | 84° |
| 2026-04-25 04:15 | 34.03289 | -118.30328 | 5639 ft | 262 kts | 83° |
| 2026-04-25 04:15 | 34.03512 | -118.28140 | 5392 ft | 258 kts | 83° |
| 2026-04-25 04:15 | 34.03745 | -118.26047 | 5151 ft | 255 kts | 83° |
| 2026-04-25 04:16 | 34.03988 | -118.23933 | 4907 ft | 254 kts | 82° |
| 2026-04-25 04:16 | 34.04240 | -118.21830 | 4666 ft | 255 kts | 82° |
| 2026-04-25 04:16 | 34.04496 | -118.19737 | 4417 ft | 254 kts | 82° |
| 2026-04-25 04:16 | 34.04751 | -118.17653 | 4174 ft | 251 kts | 82° |
| 2026-04-25 04:17 | 34.04855 | -118.15566 | 3923 ft | 247 kts | 101° |
| 2026-04-25 04:17 | 34.04170 | -118.13706 | 3660 ft | 242 kts | 131° |
| 2026-04-25 04:17 | 34.02822 | -118.12565 | 3398 ft | 240 kts | 162° |
| 2026-04-25 04:17 | 34.01185 | -118.12171 | 3149 ft | 240 kts | 178° |
| 2026-04-25 04:18 | 33.99586 | -118.12600 | 2972 ft | 235 kts | 210° |
| 2026-04-25 04:18 | 33.98387 | -118.13935 | 2968 ft | 239 kts | 230° |
| 2026-04-25 04:18 | 33.97348 | -118.15522 | 2966 ft | 240 kts | 231° |
| 2026-04-25 04:18 | 33.96336 | -118.17127 | 2964 ft | 239 kts | 237° |
| 2026-04-25 04:19 | 33.95767 | -118.18962 | 2962 ft | 229 kts | 256° |
| 2026-04-25 04:19 | 33.95497 | -118.20777 | 2955 ft | 217 kts | 260° |
| 2026-04-25 04:19 | 33.95306 | -118.22574 | 2687 ft | 216 kts | 262° |
| 2026-04-25 04:19 | 33.95153 | -118.24251 | 2426 ft | 186 kts | 262° |
| 2026-04-25 04:20 | 33.95022 | -118.25687 | 2200 ft | 161 kts | 261° |
| 2026-04-25 04:20 | 33.94895 | -118.26949 | 2000 ft | 146 kts | 260° |
| 2026-04-25 04:20 | 33.94776 | -118.28112 | 1811 ft | 135 kts | 260° |
| 2026-04-25 04:20 | 33.94664 | -118.29201 | 1647 ft | 131 kts | 260° |
| 2026-04-25 04:21 | 33.94556 | -118.30302 | 1479 ft | 134 kts | 260° |
| 2026-04-25 04:21 | 33.94441 | -118.31382 | 1278 ft | 132 kts | 261° |
| 2026-04-25 04:21 | 33.94331 | -118.32481 | 1100 ft | 130 kts | 260° |
| 2026-04-25 04:21 | 33.94220 | -118.33559 | 919 ft | 131 kts | 260° |
| 2026-04-25 04:22 | 33.94107 | -118.34649 | 747 ft | 132 kts | 261° |
| 2026-04-25 04:22 | 33.93996 | -118.35739 | 572 ft | 131 kts | 261° |
| 2026-04-25 04:22 | 33.93886 | -118.36817 | 390 ft | 130 kts | 261° |
| 2026-04-25 04:22 | 33.93776 | -118.37894 | 212 ft | 128 kts | 261° |
| 2026-04-25 04:23 | 33.93669 | -118.38922 | 116 ft | 109 kts | 263° |
| 2026-04-25 04:23 | 33.93600 | -118.39616 | 122 ft | 56 kts | 263° |
| 2026-04-25 04:23 | 33.93569 | -118.39925 | 127 ft | 31 kts | 266° |
| 2026-04-25 04:23 | 33.93570 | -118.40143 | 130 ft | 24 kts | 278° |
| 2026-04-25 04:24 | 33.93607 | -118.40308 | 132 ft | 17 kts | 290° |
| 2026-04-25 04:24 | 33.93623 | -118.40444 | 134 ft | 16 kts | 269° |
| 2026-04-25 04:24 | 33.93611 | -118.40586 | 137 ft | 16 kts | 263° |
| 2026-04-25 04:24 | 33.93597 | -118.40727 | 139 ft | 17 kts | 264° |
| 2026-04-25 04:25 | 33.93615 | -118.40859 | 141 ft | 13 kts | 306° |
| 2026-04-25 04:25 | 33.93695 | -118.40900 | 141 ft | 15 kts | 354° |
| 2026-04-25 04:25 | 33.93770 | -118.40897 | 142 ft | 10 kts | 36° |
| 2026-04-25 04:25 | 33.93796 | -118.40807 | 142 ft | 12 kts | 83° |
| 2026-04-25 04:26 | 33.93809 | -118.40679 | 141 ft | 15 kts | 83° |
| 2026-04-25 04:26 | 33.93824 | -118.40529 | 138 ft | 19 kts | 84° |
| 2026-04-25 04:26 | 33.93842 | -118.40356 | 134 ft | 23 kts | 80° |
| 2026-04-25 04:26 | 33.93860 | -118.40183 | 131 ft | 12 kts | 83° |
| 2026-04-25 04:27 | 33.93869 | -118.40095 | 130 ft | 7 kts | 83° |
| 2026-04-25 04:27 | 33.93881 | -118.40050 | 129 ft | 6 kts | 37° |
| 2026-04-25 04:27 | 33.93925 | -118.40052 | 130 ft | 6 kts | 352° |
| 2026-04-25 04:27 | 33.93969 | -118.40056 | 131 ft | 6 kts | 7° |
| 2026-04-25 04:28 | 33.94005 | -118.40024 | 132 ft | 6 kts | 49° |
| 2026-04-25 04:28 | 33.94022 | -118.39999 | 132 ft | 2 kts | 49° |
| 2026-04-25 04:28 | 33.94029 | -118.39991 | 132 ft | 1 kts | 49° |
| 2026-04-25 04:28 | 33.94030 | -118.39990 | 132 ft | 0 kts | 49° |